createdAt,value
2023-01-25T00:02:05.408Z,13.33
2023-01-25T00:04:35.247Z,13.40
2023-01-25T00:07:03.385Z,14.03
2023-01-25T00:09:31.601Z,13.97
2023-01-25T00:11:59.825Z,12.10
2023-01-25T00:14:27.973Z,15.57
2023-01-25T00:16:56.156Z,13.27
2023-01-25T00:19:24.305Z,14.43
2023-01-25T00:21:53.849Z,13.47
2023-01-25T00:24:23.134Z,13.10
2023-01-25T00:26:51.461Z,12.60
2023-01-25T00:29:19.806Z,14.50
2023-01-25T00:31:56.368Z,14.27
2023-01-25T00:34:44.816Z,15.57
2023-01-25T00:37:25.764Z,13.23
2023-01-25T00:39:53.972Z,12.10
2023-01-25T00:42:22.460Z,13.67
2023-01-25T00:44:52.723Z,12.70
2023-01-25T00:47:21.817Z,14.07
2023-01-25T00:49:50.259Z,13.90
2023-01-25T00:52:20.766Z,13.10
2023-01-25T00:54:49.236Z,12.50
2023-01-25T00:57:17.382Z,15.00
2023-01-25T00:59:47.373Z,14.03
2023-01-25T01:02:16.215Z,14.10
2023-01-25T01:04:44.569Z,15.20
2023-01-25T01:07:14.391Z,14.90
2023-01-25T01:09:43.997Z,15.80
2023-01-25T01:12:12.150Z,14.27
2023-01-25T01:14:40.427Z,16.37
2023-01-25T01:17:08.657Z,15.57
2023-01-25T01:19:36.997Z,15.27
2023-01-25T01:22:05.329Z,13.97
2023-01-25T01:24:33.668Z,14.40
2023-01-25T01:27:03.164Z,13.90
2023-01-25T01:29:31.448Z,13.33
2023-01-25T01:31:59.792Z,13.70
2023-01-25T01:34:28.691Z,13.70
2023-01-25T01:36:57.256Z,14.67
2023-01-25T01:39:25.733Z,13.80
2023-01-25T01:41:53.943Z,13.03
2023-01-25T01:44:38.914Z,13.37
2023-01-25T01:47:15.109Z,13.77
2023-01-25T01:49:48.659Z,13.67
2023-01-25T01:52:21.507Z,14.40
2023-01-25T01:54:54.162Z,15.83
2023-01-25T01:57:26.002Z,14.27
2023-01-25T02:00:03.935Z,14.83
2023-01-25T02:02:41.844Z,15.73
2023-01-25T02:05:18.510Z,14.27
2023-01-25T02:07:49.909Z,15.57
2023-01-25T02:10:21.882Z,14.27
2023-01-25T02:12:52.612Z,15.20
2023-01-25T02:15:22.545Z,15.63
2023-01-25T02:17:52.160Z,14.20
2023-01-25T02:20:27.670Z,14.93
2023-01-25T02:23:02.888Z,13.37
2023-01-25T02:25:32.953Z,13.60
2023-01-25T02:28:09.672Z,15.17
2023-01-25T02:30:37.839Z,14.20
2023-01-25T02:33:06.010Z,14.50
2023-01-25T02:35:41.400Z,14.77
2023-01-25T02:38:12.455Z,15.33
2023-01-25T02:40:47.381Z,15.10
2023-01-25T02:43:17.009Z,16.67
2023-01-25T02:45:48.657Z,15.60
2023-01-25T02:48:16.871Z,14.23
2023-01-25T02:50:48.171Z,14.50
2023-01-25T02:53:16.352Z,15.13
2023-01-25T02:55:45.840Z,14.00
2023-01-25T02:58:14.033Z,14.37
2023-01-25T03:00:42.581Z,13.10
2023-01-25T03:03:12.054Z,15.47
2023-01-25T03:05:40.806Z,14.67
2023-01-25T03:08:09.524Z,14.00
2023-01-25T03:10:38.506Z,15.23
2023-01-25T03:13:13.301Z,16.60
2023-01-25T03:15:42.143Z,15.80
2023-01-25T03:18:11.131Z,14.67
2023-01-25T03:20:39.990Z,14.37
2023-01-25T03:23:08.642Z,15.23
2023-01-25T03:25:38.518Z,16.30
2023-01-25T03:28:15.319Z,16.40
2023-01-25T03:30:44.237Z,15.50
2023-01-25T03:33:13.477Z,15.10
2023-01-25T03:35:46.137Z,15.70
2023-01-25T03:38:19.806Z,12.70
2023-01-25T03:40:49.793Z,14.43
2023-01-25T03:43:20.673Z,15.00
2023-01-25T03:45:58.760Z,14.63
2023-01-25T03:48:30.211Z,15.50
2023-01-25T03:51:01.629Z,15.07
2023-01-25T03:53:32.323Z,15.07
2023-01-25T03:56:17.661Z,13.70
2023-01-25T03:59:00.138Z,15.17
2023-01-25T04:01:32.995Z,15.30
2023-01-25T04:04:09.082Z,14.67
2023-01-25T04:06:42.536Z,15.90
2023-01-25T04:09:15.761Z,15.60
2023-01-25T04:11:52.953Z,15.87
2023-01-25T04:14:42.599Z,15.77
2023-01-25T04:17:18.874Z,16.77
2023-01-25T04:19:57.060Z,15.33
2023-01-25T04:22:30.525Z,15.37
2023-01-25T04:24:59.588Z,14.43
2023-01-25T04:27:28.592Z,15.77
2023-01-25T04:30:09.722Z,15.93
2023-01-25T04:32:44.415Z,16.90
2023-01-25T04:35:35.444Z,15.67
2023-01-25T04:38:10.310Z,14.80
2023-01-25T04:40:43.376Z,14.53
2023-01-25T04:43:18.200Z,14.90
2023-01-25T04:45:49.472Z,16.30
2023-01-25T04:48:25.836Z,15.53
2023-01-25T04:50:58.897Z,16.87
2023-01-25T04:53:30.077Z,17.13
2023-01-25T04:56:02.253Z,16.17
2023-01-25T04:58:45.046Z,15.97
2023-01-25T05:01:18.283Z,28.70
2023-01-25T05:03:52.992Z,35.23
2023-01-25T05:06:34.495Z,22.37
2023-01-25T05:09:08.636Z,31.07
2023-01-25T05:11:51.065Z,25.57
2023-01-25T05:14:28.716Z,20.30
2023-01-25T05:17:06.877Z,20.10
2023-01-25T05:19:36.700Z,19.10
2023-01-25T05:22:14.135Z,16.40
2023-01-25T05:24:46.674Z,16.60
2023-01-25T05:27:18.130Z,17.07
2023-01-25T05:30:11.155Z,17.70
2023-01-25T05:32:49.869Z,22.83
2023-01-25T05:35:19.920Z,17.97
2023-01-25T05:37:51.797Z,18.07
2023-01-25T05:40:28.165Z,18.30
2023-01-25T05:43:02.023Z,18.27
2023-01-25T05:45:32.660Z,18.10
2023-01-25T05:48:05.322Z,19.57
2023-01-25T05:50:40.038Z,19.27
2023-01-25T05:53:15.023Z,18.10
2023-01-25T05:55:49.880Z,17.73
2023-01-25T05:58:19.701Z,19.73
2023-01-25T06:00:48.872Z,19.50
2023-01-25T06:03:38.561Z,18.70
2023-01-25T06:06:07.745Z,20.70
2023-01-25T06:08:38.040Z,19.37
2023-01-25T06:11:12.928Z,35.30
2023-01-25T06:13:47.900Z,68.17
2023-01-25T06:16:16.911Z,39.03
2023-01-25T06:18:49.123Z,27.70
2023-01-25T06:21:25.885Z,21.97
2023-01-25T06:23:54.584Z,21.23
2023-01-25T06:26:23.495Z,20.27
2023-01-25T06:28:53.365Z,18.10
2023-01-25T06:31:22.888Z,19.83
2023-01-25T06:33:53.651Z,19.87
2023-01-25T06:36:26.693Z,20.53
2023-01-25T06:38:58.531Z,21.43
2023-01-25T06:41:27.882Z,21.43
2023-01-25T06:44:01.414Z,21.40
2023-01-25T06:46:33.163Z,21.20
2023-01-25T06:49:07.057Z,19.10
2023-01-25T06:51:36.304Z,19.80
2023-01-25T06:54:07.327Z,18.77
2023-01-25T06:56:39.597Z,22.30
2023-01-25T06:59:08.528Z,18.80
2023-01-25T07:01:40.798Z,20.13
2023-01-25T07:04:13.639Z,21.43
2023-01-25T07:06:42.671Z,20.70
2023-01-25T07:09:13.737Z,22.37
2023-01-25T07:11:46.179Z,21.97
2023-01-25T07:14:14.843Z,21.90
2023-01-25T07:16:46.384Z,22.57
2023-01-25T07:19:18.000Z,20.27
2023-01-25T07:21:47.530Z,21.33
2023-01-25T07:24:20.683Z,21.30
2023-01-25T07:26:49.970Z,59.57
2023-01-25T07:29:22.104Z,56.30
2023-01-25T07:31:51.153Z,28.73
2023-01-25T07:34:21.646Z,23.37
2023-01-25T07:36:53.057Z,21.43
2023-01-25T07:39:22.170Z,18.77
2023-01-25T07:41:51.007Z,21.70
2023-01-25T07:44:23.305Z,22.40
2023-01-25T07:47:00.733Z,22.60
2023-01-25T07:49:30.997Z,24.13
2023-01-25T07:52:02.736Z,24.07
2023-01-25T07:54:31.467Z,22.80
2023-01-25T07:57:00.510Z,22.60
2023-01-25T07:59:31.375Z,21.47
2023-01-25T08:02:00.238Z,23.00
2023-01-25T08:04:30.600Z,28.80
2023-01-25T08:06:59.464Z,26.80
2023-01-25T08:09:31.227Z,30.47
2023-01-25T08:11:59.924Z,26.23
2023-01-25T08:14:34.340Z,27.33
2023-01-25T08:17:03.585Z,24.60
2023-01-25T08:19:33.857Z,26.33
2023-01-25T08:22:05.491Z,25.60
2023-01-25T08:24:34.597Z,24.50
2023-01-25T08:27:03.526Z,24.10
2023-01-25T08:29:32.275Z,24.40
2023-01-25T08:32:04.544Z,23.37
2023-01-25T08:34:35.060Z,23.90
2023-01-25T08:37:09.802Z,24.07
2023-01-25T08:39:39.230Z,24.00
2023-01-25T08:42:10.424Z,24.73
2023-01-25T08:44:42.237Z,25.57
2023-01-25T08:47:11.159Z,23.50
2023-01-25T08:49:49.149Z,23.73
2023-01-25T08:52:18.171Z,26.50
2023-01-25T08:54:49.902Z,25.40
2023-01-25T08:57:21.167Z,25.77
2023-01-25T08:59:53.205Z,24.07
2023-01-25T09:02:27.609Z,24.77
2023-01-25T09:05:01.026Z,25.60
2023-01-25T09:07:34.035Z,23.87
2023-01-25T09:10:05.393Z,25.77
2023-01-25T09:12:37.161Z,26.97
2023-01-25T09:15:06.610Z,29.70
2023-01-25T09:17:39.440Z,26.07
2023-01-25T09:20:11.696Z,27.17
2023-01-25T09:22:41.069Z,28.70
2023-01-25T09:25:10.685Z,27.67
2023-01-25T09:27:43.281Z,25.80
2023-01-25T09:30:18.581Z,27.80
2023-01-25T09:32:56.589Z,25.67
2023-01-25T09:35:35.791Z,27.40
2023-01-25T09:38:04.833Z,27.93
2023-01-25T09:40:41.026Z,27.50
2023-01-25T09:43:20.316Z,27.77
2023-01-25T09:45:49.997Z,28.90
2023-01-25T09:48:27.167Z,24.80
2023-01-25T09:51:19.480Z,27.93
2023-01-25T09:53:51.936Z,26.03
2023-01-25T09:56:25.908Z,25.67
2023-01-25T09:59:02.913Z,29.93
2023-01-25T10:01:46.322Z,28.33
2023-01-25T10:04:19.175Z,28.10
2023-01-25T10:07:01.783Z,26.93
2023-01-25T10:09:45.439Z,30.27
2023-01-25T10:12:20.941Z,27.30
2023-01-25T10:14:53.110Z,26.80
2023-01-25T10:17:30.205Z,28.30
2023-01-25T10:20:16.971Z,27.30
2023-01-25T10:22:52.319Z,25.63
2023-01-25T10:25:26.242Z,28.90
2023-01-25T10:28:11.775Z,29.23
2023-01-25T10:30:47.543Z,62.03
2023-01-25T10:33:21.098Z,44.63
2023-01-25T10:35:52.324Z,35.40
2023-01-25T10:38:29.399Z,32.37
2023-01-25T10:41:03.686Z,30.97
2023-01-25T10:43:34.979Z,31.63
2023-01-25T10:46:06.738Z,30.07
2023-01-25T10:48:37.936Z,31.20
2023-01-25T10:51:07.835Z,31.70
2023-01-25T10:53:40.257Z,28.70
2023-01-25T10:56:25.527Z,34.27
2023-01-25T10:59:07.918Z,31.67
2023-01-25T11:01:38.713Z,30.30
2023-01-25T11:04:27.073Z,30.47
2023-01-25T11:07:05.662Z,31.33
2023-01-25T11:09:40.975Z,31.33
2023-01-25T11:12:21.311Z,29.57
2023-01-25T11:14:51.685Z,31.47
2023-01-25T11:17:30.437Z,33.17
2023-01-25T11:20:18.800Z,34.23
2023-01-25T11:22:58.083Z,31.37
2023-01-25T11:25:31.014Z,31.60
2023-01-25T11:28:17.205Z,31.13
2023-01-25T11:30:49.322Z,31.67
2023-01-25T11:33:21.135Z,33.40
2023-01-25T11:36:05.979Z,32.40
2023-01-25T11:38:49.753Z,31.87
2023-01-25T11:41:30.842Z,31.13
2023-01-25T11:44:22.129Z,33.20
2023-01-25T11:47:01.140Z,34.67
2023-01-25T11:49:42.774Z,32.97
2023-01-25T11:52:27.289Z,34.63
2023-01-25T11:55:14.571Z,31.87
2023-01-25T11:57:58.855Z,32.63
2023-01-25T12:00:41.575Z,34.03
2023-01-25T12:03:50.184Z,31.60
2023-01-25T12:06:31.630Z,35.97
2023-01-25T12:09:14.583Z,38.00
2023-01-25T12:11:59.543Z,34.50
2023-01-25T12:14:41.354Z,35.70
2023-01-25T12:17:27.539Z,122.67
2023-01-25T12:20:11.468Z,61.43
2023-01-25T12:23:01.684Z,45.57
2023-01-25T12:25:39.742Z,37.67
2023-01-25T12:28:18.761Z,35.90
2023-01-25T12:30:55.803Z,37.00
2023-01-25T12:33:30.974Z,36.97
2023-01-25T12:36:04.578Z,35.10
2023-01-25T12:38:42.991Z,32.03
2023-01-25T12:41:29.098Z,31.80
2023-01-25T12:44:07.469Z,30.07
2023-01-25T12:46:49.272Z,30.90
2023-01-25T12:49:27.491Z,31.57
2023-01-25T12:52:00.691Z,31.67
2023-01-25T12:54:34.798Z,32.70
2023-01-25T12:57:18.662Z,32.13
2023-01-25T13:00:05.067Z,31.23
2023-01-25T13:02:55.358Z,39.07
2023-01-25T13:05:35.749Z,31.77
2023-01-25T13:08:23.115Z,30.17
2023-01-25T13:11:04.314Z,31.93
2023-01-25T13:13:38.426Z,35.37
2023-01-25T13:16:38.173Z,86.23
2023-01-25T13:19:20.236Z,68.30
2023-01-25T13:21:50.560Z,47.87
2023-01-25T13:24:25.125Z,38.80
2023-01-25T13:27:07.030Z,34.40
2023-01-25T13:30:00.441Z,35.20
2023-01-25T13:32:55.534Z,33.03
2023-01-25T13:35:30.705Z,32.47
2023-01-25T13:38:01.946Z,32.53
2023-01-25T13:40:34.532Z,35.50
2023-01-25T13:43:04.991Z,34.10
2023-01-25T13:45:36.245Z,32.47
2023-01-25T13:48:14.478Z,33.13
2023-01-25T13:50:50.178Z,32.40
2023-01-25T13:53:23.626Z,32.17
2023-01-25T13:55:53.704Z,37.37
2023-01-25T13:58:23.734Z,36.07
2023-01-25T14:00:55.670Z,33.70
2023-01-25T14:03:29.116Z,34.53
2023-01-25T14:06:02.515Z,31.83
2023-01-25T14:08:31.598Z,33.20
2023-01-25T14:11:00.064Z,30.73
2023-01-25T14:13:28.224Z,32.87
2023-01-25T14:15:58.993Z,35.30
2023-01-25T14:18:33.374Z,35.43
2023-01-25T14:21:13.984Z,35.60
2023-01-25T14:23:42.288Z,38.23
2023-01-25T14:26:23.055Z,35.37
2023-01-25T14:29:01.192Z,34.27
2023-01-25T14:31:34.668Z,36.57
2023-01-25T14:34:04.980Z,32.07
2023-01-25T14:36:35.628Z,34.33
2023-01-25T14:39:14.705Z,35.83
2023-01-25T14:41:59.888Z,38.60
2023-01-25T14:44:30.686Z,35.27
2023-01-25T14:47:31.167Z,33.93
2023-01-25T14:50:29.072Z,36.50
2023-01-25T14:53:00.242Z,37.97
2023-01-25T14:55:28.508Z,38.27
2023-01-25T14:58:01.371Z,33.63
2023-01-25T15:00:32.065Z,32.50
2023-01-25T15:03:02.017Z,34.20
2023-01-25T15:05:32.976Z,33.17
2023-01-25T15:08:27.169Z,31.27
2023-01-25T15:10:57.732Z,43.30
2023-01-25T15:13:27.519Z,37.33
2023-01-25T15:15:58.291Z,37.27
2023-01-25T15:18:43.448Z,38.53
2023-01-25T15:21:13.854Z,38.63
2023-01-25T15:23:44.847Z,36.87
2023-01-25T15:26:20.377Z,32.53
2023-01-25T15:28:49.325Z,34.63
2023-01-25T15:31:19.654Z,35.97
2023-01-25T15:33:47.966Z,37.83
2023-01-25T15:36:17.660Z,32.60
2023-01-25T15:38:47.818Z,37.53
2023-01-25T15:41:18.556Z,36.50
2023-01-25T15:43:47.436Z,34.53
2023-01-25T15:46:18.795Z,34.47
2023-01-25T15:48:48.153Z,33.83
2023-01-25T15:51:17.065Z,33.37
2023-01-25T15:53:45.389Z,30.93
2023-01-25T15:56:16.943Z,33.80
2023-01-25T15:58:48.302Z,33.80
2023-01-25T16:01:16.518Z,36.23
2023-01-25T16:03:45.033Z,37.70
2023-01-25T16:06:29.737Z,36.30
2023-01-25T16:08:58.854Z,34.70
2023-01-25T16:11:28.794Z,35.30
2023-01-25T16:13:58.006Z,40.03
2023-01-25T16:16:27.157Z,32.63
2023-01-25T16:18:55.671Z,34.33
2023-01-25T16:21:23.862Z,36.80
2023-01-25T16:23:52.186Z,31.70
2023-01-25T16:26:23.304Z,36.00
2023-01-25T16:28:53.343Z,34.07
2023-01-25T16:31:32.408Z,77.17
2023-01-25T16:34:01.530Z,59.73
2023-01-25T16:36:31.457Z,43.20
2023-01-25T16:39:09.784Z,37.97
2023-01-25T16:41:38.646Z,35.70
2023-01-25T16:44:08.500Z,37.23
2023-01-25T16:46:36.764Z,41.93
2023-01-25T16:49:07.107Z,36.67
2023-01-25T16:51:35.674Z,39.17
2023-01-25T16:54:03.995Z,40.10
2023-01-25T16:56:34.284Z,40.83
2023-01-25T16:59:05.086Z,41.17
2023-01-25T17:01:35.238Z,41.17
2023-01-25T17:04:03.649Z,42.63
2023-01-25T17:06:34.161Z,43.33
2023-01-25T17:09:16.496Z,46.17
2023-01-25T17:11:50.301Z,44.87
2023-01-25T17:14:20.303Z,47.03
2023-01-25T17:16:51.904Z,45.20
2023-01-25T17:19:20.968Z,44.43
2023-01-25T17:21:49.712Z,41.90
2023-01-25T17:24:20.910Z,42.80
2023-01-25T17:26:49.446Z,44.83
2023-01-25T17:29:18.037Z,47.30
2023-01-25T17:31:46.304Z,47.63
2023-01-25T17:34:19.398Z,48.10
2023-01-25T17:36:47.774Z,125.17
2023-01-25T17:39:17.726Z,110.63
2023-01-25T17:41:47.270Z,87.20
2023-01-25T17:44:20.080Z,62.92
2023-01-25T17:46:48.602Z,58.80
2023-01-25T17:49:18.753Z,57.10
2023-01-25T17:51:47.444Z,64.83
2023-01-25T17:54:15.755Z,64.03
2023-01-25T17:56:43.954Z,64.30
2023-01-25T17:59:12.147Z,65.60
2023-01-25T18:01:42.819Z,64.17
2023-01-25T18:04:13.171Z,63.37
2023-01-25T18:06:42.851Z,61.73
2023-01-25T18:09:11.430Z,63.00
2023-01-25T18:11:41.150Z,58.63
2023-01-25T18:14:12.592Z,67.60
2023-01-25T18:16:42.357Z,58.80
2023-01-25T18:19:11.309Z,57.67
2023-01-25T18:21:41.930Z,59.83
2023-01-25T18:24:24.946Z,63.63
2023-01-25T18:26:55.303Z,63.37
2023-01-25T18:29:40.594Z,61.13
2023-01-25T18:32:08.973Z,65.00
2023-01-25T18:34:37.152Z,59.30
2023-01-25T18:37:18.738Z,64.37
2023-01-25T18:39:50.221Z,68.67
2023-01-25T18:42:19.100Z,66.30
2023-01-25T18:44:48.432Z,65.60
2023-01-25T18:47:18.924Z,70.77
2023-01-25T18:49:47.667Z,76.67
2023-01-25T18:52:16.630Z,120.53
2023-01-25T18:54:45.495Z,104.05
2023-01-25T18:57:15.712Z,71.83
2023-01-25T18:59:44.483Z,64.10
2023-01-25T19:02:13.916Z,64.63
2023-01-25T19:04:42.453Z,59.13
2023-01-25T19:07:11.006Z,58.77
2023-01-25T19:09:39.386Z,60.77
2023-01-25T19:12:08.251Z,59.10
2023-01-25T19:14:37.929Z,58.03
2023-01-25T19:17:07.544Z,61.13
2023-01-25T19:19:35.819Z,58.60
2023-01-25T19:22:04.123Z,58.57
2023-01-25T19:24:32.567Z,60.33
2023-01-25T19:27:01.117Z,59.40
2023-01-25T19:29:29.777Z,59.70
2023-01-25T19:31:59.677Z,57.07
2023-01-25T19:34:28.062Z,58.10
2023-01-25T19:36:57.303Z,55.83
2023-01-25T19:39:25.515Z,58.50
2023-01-25T19:41:54.599Z,59.47
2023-01-25T19:44:24.617Z,63.60
2023-01-25T19:46:52.948Z,61.23
2023-01-25T19:49:23.354Z,67.23
2023-01-25T19:51:53.938Z,66.27
2023-01-25T19:54:24.172Z,61.97
2023-01-25T19:56:52.786Z,61.00
2023-01-25T19:59:24.908Z,65.13
2023-01-25T20:01:53.785Z,59.63
2023-01-25T20:04:25.087Z,57.40
2023-01-25T20:06:54.064Z,63.07
2023-01-25T20:09:27.592Z,63.93
2023-01-25T20:11:57.086Z,59.53
2023-01-25T20:14:25.428Z,58.70
2023-01-25T20:16:53.673Z,59.13
2023-01-25T20:19:24.098Z,49.80
2023-01-25T20:21:52.546Z,57.40
2023-01-25T20:24:20.885Z,53.37
2023-01-25T20:26:49.212Z,54.77
2023-01-25T20:29:17.459Z,52.63
2023-01-25T20:31:47.054Z,54.47
2023-01-25T20:34:18.056Z,52.97
2023-01-25T20:36:55.569Z,56.97
2023-01-25T20:39:28.213Z,59.73
2023-01-25T20:41:58.515Z,58.27
2023-01-25T20:44:31.447Z,57.90
2023-01-25T20:47:03.476Z,54.00
2023-01-25T20:49:37.369Z,57.47
2023-01-25T20:52:13.970Z,61.23
2023-01-25T20:54:45.627Z,58.60
2023-01-25T20:57:16.689Z,59.20
2023-01-25T20:59:48.471Z,55.30
2023-01-25T21:02:22.849Z,50.00
2023-01-25T21:04:54.870Z,55.83
2023-01-25T21:07:27.246Z,53.17
2023-01-25T21:09:56.908Z,53.03
2023-01-25T21:12:30.414Z,51.13
2023-01-25T21:15:00.808Z,49.80
2023-01-25T21:17:46.123Z,53.93
2023-01-25T21:20:36.254Z,51.93
2023-01-25T21:23:05.910Z,48.63
2023-01-25T21:25:34.165Z,53.83
2023-01-25T21:28:13.048Z,58.10
2023-01-25T21:30:41.272Z,46.53
2023-01-25T21:33:10.385Z,53.10
2023-01-25T21:35:38.628Z,57.90
2023-01-25T21:38:08.306Z,54.10
2023-01-25T21:40:36.526Z,57.43
2023-01-25T21:43:04.956Z,56.20
2023-01-25T21:45:50.610Z,54.93
2023-01-25T21:48:38.805Z,52.87
2023-01-25T21:51:24.428Z,53.70
2023-01-25T21:53:54.150Z,54.43
2023-01-25T21:56:22.323Z,52.60
2023-01-25T21:58:50.452Z,55.07
2023-01-25T22:01:20.183Z,52.53
2023-01-25T22:03:49.715Z,54.40
2023-01-25T22:06:18.150Z,55.10
2023-01-25T22:08:46.843Z,54.03
2023-01-25T22:11:16.511Z,55.33
2023-01-25T22:13:44.740Z,53.90
2023-01-25T22:16:13.853Z,55.20
2023-01-25T22:18:43.772Z,55.37
2023-01-25T22:21:17.058Z,56.40
2023-01-25T22:23:45.910Z,54.97
2023-01-25T22:26:17.707Z,55.43
2023-01-25T22:28:47.515Z,56.70
2023-01-25T22:31:17.033Z,52.27
2023-01-25T22:33:46.040Z,51.63
2023-01-25T22:36:15.775Z,53.50
2023-01-25T22:38:44.041Z,58.37
2023-01-25T22:41:14.761Z,55.60
2023-01-25T22:43:44.780Z,57.53
2023-01-25T22:46:14.880Z,52.90
2023-01-25T22:48:43.200Z,53.67
2023-01-25T22:51:14.567Z,60.93
2023-01-25T22:53:42.912Z,53.73
2023-01-25T22:56:13.476Z,58.67
2023-01-25T22:58:44.514Z,58.90
2023-01-25T23:01:14.205Z,56.33
2023-01-25T23:03:42.769Z,58.47
2023-01-25T23:06:14.145Z,61.30
2023-01-25T23:08:43.051Z,58.93
2023-01-25T23:11:13.466Z,61.93
2023-01-25T23:13:42.335Z,63.20
2023-01-25T23:16:11.908Z,61.50
2023-01-25T23:18:51.184Z,61.20
2023-01-25T23:21:21.889Z,62.30
2023-01-25T23:23:50.945Z,57.50
2023-01-25T23:26:19.461Z,62.10
2023-01-25T23:28:53.102Z,56.93
2023-01-25T23:31:25.135Z,59.97
2023-01-25T23:33:55.175Z,54.77
2023-01-25T23:36:25.077Z,55.93
2023-01-25T23:38:54.256Z,57.00
2023-01-25T23:41:23.831Z,58.30
2023-01-25T23:43:51.940Z,58.07
2023-01-25T23:46:20.313Z,60.60
2023-01-25T23:48:49.897Z,62.13
2023-01-25T23:51:19.246Z,57.40
2023-01-25T23:53:48.240Z,58.53
2023-01-25T23:56:21.609Z,56.60
2023-01-25T23:58:50.120Z,59.80
